Skip Navigation LinksHome page > Weather > Current weather Skip Navigation Links

Current Weather

Lewis University, Romeoville, Ill.

For information only: do not use for flight planning or navigation.
Latest weather
Observation time Monday, November 29, 2021 3:15 PM CST
Local time Monday, November 29, 2021 3:28 PM CST
Flight conditions Conditions unknown
Winds
Wind direction South (170°)
Wind speed 17 mph
Sky condition
Ceiling 8,500 ft. overcast
Cloud layer overcast 8,500 ft.
Temperature 39°F
Dewpoint 25°F
Altimeter 29.84 in.Hg
Derived measurements
Relative humidity 57%
Wind chill 30°F
Density altitude -492 ft.
Remarks
Fully automated report.
Automated weather observing station with precipitation discriminator.
Present weather sensor not operating.
METAR KLOT 292115Z AUTO 17015KT OVC085 04/M04 A2984 RMK AO2 T00401038 PWINO

Settings

Location code

InnerDrive.Weather 4.0.6770.0 Release CLR 4.0.30319.42000
Copyright ©2018 Inner Drive Technology. All rights reserved. Portions Copyright ©1986-2018 David Braverman.

Find weather

Site navigation


Skip Navigation Links

Place info

Page info

PayPal - The safer, easier way to pay online!

Return home.

Copyright ©2021 Inner Drive Technology. Purveyors of fine, hand-crafted computer software. Page printed 2021-11-29T21:28:12 UTC.